Time;durP1;ratioP1;P1;durP2;ratioP2;P2;SDS_P1;SDS_P2;PMS_P1;PMS_P2;Temp;Humidity;BMP_temperature;BMP_pressure;BME280_temperature;BME280_humidity;BME280_pressure;Samples;Min_cycle;Max_cycle;Signal;HPM_P1;HPM_P2
2022/07/31 00:00:31;;;;;;;8.27;4.85;;;16.30;99.90;16.30;100712.00;;;;4954790;28;93929;-61
2022/07/31 00:02:56;;;;;;;3.40;3.10;;;16.30;99.90;16.30;100708.00;;;;4953779;28;110103;-61
2022/07/31 00:05:24;;;;;;;3.83;3.45;;;16.20;99.90;16.30;100714.00;;;;4954047;28;107626;-61
2022/07/31 00:07:52;;;;;;;10.98;3.75;;;16.20;99.90;16.30;100721.00;;;;4954686;28;93990;-62
2022/07/31 00:10:17;;;;;;;3.97;3.65;;;16.20;99.90;16.20;100718.00;;;;4954845;28;114055;-61
2022/07/31 00:12:43;;;;;;;3.95;3.55;;;16.10;99.90;16.20;100716.00;;;;4954337;28;110530;-62
2022/07/31 00:15:11;;;;;;;5.82;3.90;;;16.10;99.90;16.10;100711.00;;;;4954854;28;108961;-61
2022/07/31 00:17:41;;;;;;;4.70;4.05;;;16.10;99.90;16.10;100709.00;;;;4936119;28;94438;-61
2022/07/31 00:20:13;;;;;;;7.18;4.10;;;16.10;99.90;16.10;100714.00;;;;4954234;28;93137;-61
2022/07/31 00:22:44;;;;;;;4.45;3.83;;;16.00;99.90;16.00;100713.00;;;;4954177;28;93749;-62
2022/07/31 00:25:12;;;;;;;4.07;3.67;;;16.00;99.90;16.00;100716.00;;;;4954632;28;92845;-61
2022/07/31 00:27:39;;;;;;;5.57;4.13;;;15.90;99.90;16.00;100711.00;;;;4954002;28;97550;-61
2022/07/31 00:30:05;;;;;;;6.22;4.63;;;15.90;99.90;16.00;100708.00;;;;4954322;28;92839;-61
2022/07/31 00:32:31;;;;;;;4.78;4.35;;;15.90;99.90;16.00;100708.00;;;;4954908;28;92627;-62
2022/07/31 00:34:57;;;;;;;7.03;4.30;;;15.90;99.90;15.90;100710.00;;;;4935598;28;108210;-62
2022/07/31 00:37:23;;;;;;;4.70;3.85;;;15.90;99.90;15.90;100705.00;;;;4953496;28;122135;-61
2022/07/31 00:39:49;;;;;;;5.30;4.65;;;15.80;99.90;15.90;100700.00;;;;4954330;28;92532;-60
2022/07/31 00:42:20;;;;;;;4.88;4.05;;;15.80;99.90;15.90;100700.00;;;;4953440;28;110168;-62
2022/07/31 00:44:46;;;;;;;4.90;3.95;;;15.80;99.90;15.90;100706.00;;;;4954780;28;92661;-61
2022/07/31 00:47:12;;;;;;;4.43;3.95;;;15.80;99.90;15.80;100704.00;;;;4953583;28;94116;-61
2022/07/31 00:49:38;;;;;;;6.07;5.00;;;15.80;99.90;15.80;100709.00;;;;4953972;28;96143;-61
2022/07/31 00:52:05;;;;;;;4.90;4.32;;;15.70;99.90;15.80;100708.00;;;;4953523;28;110486;-61
2022/07/31 00:54:31;;;;;;;5.40;4.60;;;15.70;99.90;15.70;100697.00;;;;4954226;28;93938;-62
2022/07/31 00:56:56;;;;;;;4.70;3.78;;;15.60;99.90;15.70;100708.00;;;;4954571;28;93226;-62
2022/07/31 00:59:22;;;;;;;6.47;4.50;;;15.60;99.90;15.60;100699.00;;;;4953176;28;122440;-61
2022/07/31 01:01:48;;;;;;;6.82;3.83;;;15.60;99.90;15.60;100696.00;;;;4953162;28;111510;-61
2022/07/31 01:04:17;;;;;;;6.53;4.85;;;15.60;99.90;15.60;100694.00;;;;4954025;28;109808;-62
2022/07/31 01:06:43;;;;;;;6.38;4.05;;;15.50;99.90;15.50;100694.00;;;;4954601;28;94335;-62
2022/07/31 01:09:09;;;;;;;4.75;4.07;;;15.50;99.90;15.50;100703.00;;;;4954338;28;112395;-61
2022/07/31 01:11:49;;;;;;;4.75;4.18;;;15.40;99.90;15.40;100708.00;;;;4953601;28;94531;-62
2022/07/31 01:14:18;;;;;;;8.02;4.78;;;15.40;99.90;15.40;100698.00;;;;4954418;28;92895;-62
2022/07/31 01:16:49;;;;;;;7.37;4.77;;;15.40;99.90;15.40;100696.00;;;;4934154;28;112320;-62
2022/07/31 01:19:40;;;;;;;6.23;3.77;;;15.30;99.90;15.30;100702.00;;;;4919371;28;95254;-62
2022/07/31 01:22:56;;;;;;;4.63;3.93;;;15.30;99.90;15.20;100702.00;;;;4935493;28;93124;-62
2022/07/31 01:25:55;;;;;;;4.00;3.67;;;15.30;99.90;15.20;100700.00;;;;4936005;28;93061;-61
2022/07/31 01:29:01;;;;;;;4.33;3.93;;;15.20;99.90;15.20;100694.00;;;;4935965;28;92986;-62
2022/07/31 01:31:36;;;;;;;6.77;4.33;;;15.20;99.90;15.20;100694.00;;;;4953356;28;112443;-62
2022/07/31 01:34:15;;;;;;;5.97;3.95;;;15.10;99.90;15.20;100693.00;;;;4935448;28;92918;-61
2022/07/31 01:36:48;;;;;;;4.50;4.10;;;15.10;99.90;15.10;100700.00;;;;4935623;28;93240;-62
2022/07/31 01:39:14;;;;;;;5.95;4.90;;;15.10;99.90;15.10;100698.00;;;;4953633;28;94983;-62
2022/07/31 01:41:42;;;;;;;5.90;5.00;;;15.10;99.90;15.10;100702.00;;;;4934342;28;94244;-62
2022/07/31 01:44:10;;;;;;;5.97;5.10;;;15.00;99.90;15.10;100693.00;;;;4953697;28;92771;-61
2022/07/31 01:46:39;;;;;;;7.78;5.20;;;15.00;99.90;15.10;100705.00;;;;4935077;28;92880;-62
2022/07/31 01:49:06;;;;;;;5.57;4.78;;;15.00;99.90;15.10;100690.00;;;;4914747;28;123503;-62
2022/07/31 01:51:33;;;;;;;6.33;3.97;;;15.00;99.90;15.00;100689.00;;;;4942395;28;93934;-62
2022/07/31 01:54:00;;;;;;;7.87;5.30;;;15.00;99.90;15.00;100690.00;;;;4918676;28;111725;-62
2022/07/31 01:56:27;;;;;;;9.23;4.85;;;15.00;99.90;15.00;100689.00;;;;4953860;28;92169;-62
2022/07/31 01:58:53;;;;;;;4.83;4.37;;;15.00;99.90;15.00;100691.00;;;;4934082;28;107670;-61
2022/07/31 02:01:20;;;;;;;4.80;4.37;;;14.90;99.90;15.00;100695.00;;;;4934612;28;113190;-61
2022/07/31 02:03:47;;;;;;;4.10;3.30;;;14.90;99.90;14.90;100693.00;;;;4934363;28;94025;-62
2022/07/31 02:06:16;;;;;;;6.30;4.60;;;14.90;99.90;14.90;100688.00;;;;4934453;28;99098;-62
2022/07/31 02:08:45;;;;;;;4.30;4.00;;;14.80;99.90;14.90;100685.00;;;;4953022;28;94117;-61
2022/07/31 02:11:12;;;;;;;6.40;4.63;;;14.80;99.90;14.90;100683.00;;;;4952304;28;109780;-62
2022/07/31 02:13:39;;;;;;;5.23;4.73;;;14.80;99.90;14.80;100686.00;;;;4934764;28;93041;-62
2022/07/31 02:16:05;;;;;;;6.77;4.80;;;14.80;99.90;14.80;100677.00;;;;4952698;28;107023;-62
2022/07/31 02:18:33;;;;;;;4.83;4.33;;;14.80;99.90;14.80;100661.00;;;;4931540;28;94035;-62
2022/07/31 02:20:58;;;;;;;7.90;4.57;;;14.70;99.90;14.80;100675.00;;;;4935493;28;122291;-61
2022/07/31 02:23:24;;;;;;;6.27;5.67;;;14.70;99.90;14.80;100669.00;;;;4933564;28;111503;-61
2022/07/31 02:25:50;;;;;;;5.37;4.37;;;14.70;99.90;14.70;100678.00;;;;4952453;28;92920;-62
2022/07/31 02:28:21;;;;;;;5.30;4.67;;;14.70;99.90;14.70;100676.00;;;;4950868;28;123731;-62
2022/07/31 02:30:48;;;;;;;5.80;5.10;;;14.60;99.90;14.70;100669.00;;;;4952452;28;94729;-62
2022/07/31 02:33:20;;;;;;;6.90;5.37;;;14.60;99.90;14.70;100666.00;;;;4934059;28;92943;-62
2022/07/31 02:35:49;;;;;;;4.37;4.03;;;14.60;99.90;14.70;100675.00;;;;4952841;28;92768;-62
2022/07/31 02:38:18;;;;;;;6.40;4.43;;;14.60;99.90;14.60;100664.00;;;;4934525;28;93174;-62
2022/07/31 02:40:45;;;;;;;5.73;4.33;;;14.60;99.90;14.60;100661.00;;;;4934251;28;93233;-64
2022/07/31 02:43:11;;;;;;;4.97;4.47;;;14.50;99.90;14.60;100663.00;;;;4951958;28;93074;-62
2022/07/31 02:45:37;;;;;;;6.00;4.77;;;14.50;99.90;14.60;100659.00;;;;4952582;28;108865;-61
2022/07/31 02:48:04;;;;;;;6.37;5.77;;;14.50;99.90;14.60;100654.00;;;;4951672;28;123254;-61
2022/07/31 02:50:30;;;;;;;8.50;5.47;;;14.50;99.90;14.50;100648.00;;;;4933160;28;111254;-61
2022/07/31 02:52:57;;;;;;;5.47;4.93;;;14.50;99.90;14.50;100648.00;;;;4933517;28;93906;-63
2022/07/31 02:55:23;;;;;;;5.27;4.77;;;14.40;99.90;14.50;100654.00;;;;4951658;28;108204;-61
2022/07/31 02:57:50;;;;;;;4.27;3.87;;;14.40;99.90;14.50;100646.00;;;;4932381;28;120717;-61
2022/07/31 03:00:25;;;;;;;6.90;4.87;;;14.50;99.90;14.50;100655.00;;;;4952443;28;92846;-61
2022/07/31 03:02:53;;;;;;;7.93;6.07;;;14.40;99.90;14.40;100644.00;;;;4940228;28;92818;-61
2022/07/31 03:05:20;;;;;;;9.53;6.30;;;14.40;99.90;14.40;100640.00;;;;4952213;28;100983;-61
2022/07/31 03:07:45;;;;;;;7.03;5.73;;;14.40;99.90;14.40;100650.00;;;;4933358;28;94001;-61
2022/07/31 03:10:11;;;;;;;5.30;4.80;;;14.40;99.90;14.40;100643.00;;;;4951483;28;123475;-61
2022/07/31 03:12:43;;;;;;;5.00;4.53;;;14.30;99.90;14.40;100647.00;;;;4951999;28;93006;-62
2022/07/31 03:15:25;;;;;;;10.07;5.70;;;14.30;99.90;14.40;100639.00;;;;4952863;28;92714;-62
2022/07/31 03:17:53;;;;;;;6.33;5.73;;;14.10;99.90;14.40;100643.00;;;;4951529;28;94645;-62
2022/07/31 03:20:19;;;;;;;8.07;5.53;;;14.30;99.90;14.30;100640.00;;;;4933603;28;94603;-62
2022/07/31 03:22:45;;;;;;;7.13;4.53;;;14.30;99.90;14.30;100636.00;;;;4951618;28;109516;-62
2022/07/31 03:25:11;;;;;;;8.20;6.03;;;14.30;99.90;14.30;100639.00;;;;4951657;28;109164;-62
2022/07/31 03:27:37;;;;;;;5.40;4.87;;;14.30;99.90;14.30;100632.00;;;;4950268;28;123845;-62
2022/07/31 03:30:05;;;;;;;5.23;4.67;;;14.20;99.90;14.30;100637.00;;;;4951934;28;93843;-61
2022/07/31 03:32:31;;;;;;;9.43;5.83;;;14.20;99.90;14.20;100635.00;;;;4951395;28;92907;-62
2022/07/31 03:34:56;;;;;;;8.10;6.17;;;14.20;99.90;14.20;100630.00;;;;4953078;28;92167;-62
2022/07/31 03:37:22;;;;;;;7.83;4.97;;;14.20;99.90;14.20;100630.00;;;;4950989;28;122980;-62
2022/07/31 03:39:48;;;;;;;9.17;5.97;;;14.10;99.90;14.20;100632.00;;;;4951465;28;123199;-61
2022/07/31 03:42:15;;;;;;;6.90;4.90;;;14.10;99.90;14.10;100634.00;;;;4952051;28;93910;-61
2022/07/31 03:44:42;;;;;;;6.17;4.97;;;14.10;99.90;14.10;100629.00;;;;4932562;28;109142;-62
2022/07/31 03:47:08;;;;;;;7.13;4.80;;;14.00;99.90;14.00;100632.00;;;;4933483;28;113525;-61
2022/07/31 03:49:34;;;;;;;4.43;4.03;;;14.00;99.90;14.00;100643.00;;;;4951443;28;108589;-63
2022/07/31 03:51:59;;;;;;;5.53;4.93;;;14.00;99.90;14.00;100630.00;;;;4932339;28;110826;-62
2022/07/31 03:54:25;;;;;;;6.47;5.70;;;13.90;99.90;14.00;100633.00;;;;4934527;28;108033;-62
2022/07/31 03:56:53;;;;;;;7.60;5.63;;;13.90;99.90;13.90;100633.00;;;;4954488;28;108858;-62
2022/07/31 03:59:20;;;;;;;5.77;4.73;;;13.90;99.90;13.90;100636.00;;;;4936907;28;113209;-62
2022/07/31 04:01:46;;;;;;;6.07;4.63;;;13.90;99.90;13.90;100638.00;;;;4936826;28;98988;-62
2022/07/31 04:04:14;;;;;;;6.00;5.23;;;13.90;99.90;13.90;100638.00;;;;4936909;28;92966;-62
2022/07/31 04:06:40;;;;;;;8.57;5.43;;;13.90;99.90;13.90;100637.00;;;;4955387;28;94424;-62
2022/07/31 04:09:07;;;;;;;5.37;4.73;;;13.90;99.90;13.90;100643.00;;;;4954629;28;94681;-62
2022/07/31 04:11:32;;;;;;;5.13;4.63;;;13.90;99.90;13.90;100650.00;;;;4937229;28;92692;-62
2022/07/31 04:13:59;;;;;;;5.70;3.77;;;13.90;99.90;14.00;100647.00;;;;4936381;28;110119;-62
2022/07/31 04:16:24;;;;;;;7.40;5.67;;;13.90;99.90;14.00;100648.00;;;;4955075;28;93835;-61
2022/07/31 04:18:50;;;;;;;7.17;5.57;;;13.90;99.90;14.00;100646.00;;;;4954105;28;123445;-62
2022/07/31 04:21:15;;;;;;;5.43;4.97;;;14.00;99.90;14.00;100642.00;;;;4935980;28;111419;-62
2022/07/31 04:23:41;;;;;;;4.60;4.20;;;14.00;99.90;14.10;100643.00;;;;4954673;28;108084;-62
2022/07/31 04:26:07;;;;;;;7.80;5.83;;;14.00;99.90;14.10;100648.00;;;;4954191;28;123207;-61
2022/07/31 04:28:32;;;;;;;6.17;5.57;;;14.00;99.90;14.20;100642.00;;;;4953555;28;121894;-62
2022/07/31 04:30:58;;;;;;;6.30;5.33;;;14.10;99.90;14.20;100649.00;;;;4954405;28;93633;-62
2022/07/31 04:33:24;;;;;;;6.07;5.47;;;14.20;99.90;14.30;100664.00;;;;4954801;28;108234;-62
2022/07/31 04:35:51;;;;;;;7.20;6.50;;;14.20;99.90;14.40;100657.00;;;;4953936;28;122165;-62
2022/07/31 04:38:17;;;;;;;6.67;6.07;;;14.30;99.90;14.50;100662.00;;;;4954139;28;111594;-62
2022/07/31 04:40:43;;;;;;;10.30;6.93;;;14.40;99.90;14.60;100669.00;;;;4954643;28;92803;-62
2022/07/31 04:43:09;;;;;;;9.53;7.63;;;14.40;99.90;14.70;100662.00;;;;4954755;28;92700;-62
2022/07/31 04:45:35;;;;;;;10.30;6.93;;;14.60;99.90;14.70;100660.00;;;;4954557;28;112388;-62
2022/07/31 04:48:00;;;;;;;9.30;6.07;;;14.60;99.90;14.80;100657.00;;;;4951919;28;122772;-62
2022/07/31 04:50:26;;;;;;;7.63;6.60;;;14.70;99.90;14.90;100664.00;;;;4953960;28;109301;-62
2022/07/31 04:52:52;;;;;;;12.27;6.90;;;14.80;99.90;15.00;100665.00;;;;4953108;28;107833;-63
2022/07/31 04:55:18;;;;;;;6.63;6.03;;;14.90;99.90;15.10;100671.00;;;;4952762;28;123901;-62
2022/07/31 04:57:44;;;;;;;7.67;6.47;;;15.00;99.90;15.20;100674.00;;;;4954176;28;94031;-62
2022/07/31 05:00:10;;;;;;;7.77;5.90;;;15.10;99.90;15.30;100662.00;;;;4935334;28;109978;-62
2022/07/31 05:02:36;;;;;;;5.50;4.73;;;15.30;99.90;15.50;100671.00;;;;4954218;28;92746;-61
2022/07/31 05:05:03;;;;;;;5.50;4.95;;;15.40;99.90;15.70;100678.00;;;;4954669;28;92733;-61
2022/07/31 05:07:28;;;;;;;8.25;5.10;;;15.50;99.90;15.80;100679.00;;;;4953261;28;94086;-63
2022/07/31 05:09:55;;;;;;;6.63;5.30;;;15.70;99.90;15.90;100676.00;;;;4953328;28;109891;-63
2022/07/31 05:12:21;;;;;;;5.15;4.65;;;15.80;99.90;16.10;100680.00;;;;4953805;28;98114;-63
2022/07/31 05:14:46;;;;;;;7.28;6.57;;;16.00;99.90;16.30;100689.00;;;;4952867;28;100350;-63
2022/07/31 05:17:12;;;;;;;8.95;6.40;;;16.10;99.90;16.50;100688.00;;;;4953470;28;120809;-62
2022/07/31 05:19:38;;;;;;;7.00;5.82;;;16.30;99.90;16.60;100685.00;;;;4953437;28;110517;-63
2022/07/31 05:22:04;;;;;;;7.43;5.72;;;16.40;99.90;16.80;100683.00;;;;4954432;28;92931;-63
2022/07/31 05:24:31;;;;;;;10.77;5.25;;;16.60;99.90;16.90;100681.00;;;;4953848;28;94482;-63
2022/07/31 05:26:57;;;;;;;9.07;5.95;;;16.70;99.90;17.10;100674.00;;;;4953783;28;94189;-63
2022/07/31 05:29:22;;;;;;;7.07;5.07;;;16.90;99.90;17.20;100676.00;;;;4953870;28;92788;-63
2022/07/31 05:31:48;;;;;;;6.07;4.20;;;17.00;99.90;17.40;100678.00;;;;4952295;28;108532;-64
2022/07/31 05:34:14;;;;;;;5.07;4.60;;;17.20;99.90;17.60;100685.00;;;;4952226;28;112927;-64
2022/07/31 05:36:39;;;;;;;5.18;4.57;;;17.30;99.90;17.70;100678.00;;;;4953253;28;121400;-63
2022/07/31 05:39:05;;;;;;;6.63;4.78;;;17.50;99.90;17.80;100672.00;;;;4951075;28;92862;-63
2022/07/31 05:41:32;;;;;;;4.47;4.07;;;17.60;99.90;18.00;100673.00;;;;4950121;28;92776;-64
2022/07/31 05:43:58;;;;;;;3.88;3.50;;;17.80;99.90;18.10;100671.00;;;;4948823;28;94894;-64
2022/07/31 05:46:24;;;;;;;5.63;4.57;;;17.90;99.90;18.20;100668.00;;;;4946557;28;112698;-63
2022/07/31 05:48:50;;;;;;;4.65;3.83;;;18.00;99.90;18.30;100677.00;;;;4950376;28;111038;-63
2022/07/31 05:51:15;;;;;;;5.15;4.07;;;18.20;99.90;18.50;100672.00;;;;4956171;28;108420;-63
2022/07/31 05:53:41;;;;;;;4.68;4.15;;;18.30;99.90;18.60;100678.00;;;;4930575;28;122078;-63
2022/07/31 05:56:07;;;;;;;6.45;4.55;;;18.40;99.90;18.80;100683.00;;;;4949413;28;99685;-64
2022/07/31 05:58:33;;;;;;;4.80;4.03;;;18.60;99.90;18.90;100679.00;;;;4949130;28;104910;-63
2022/07/31 06:01:00;;;;;;;4.38;3.50;;;18.70;99.90;19.10;100682.00;;;;4950463;28;92413;-62
2022/07/31 06:03:26;;;;;;;4.13;3.72;;;18.90;99.90;19.20;100679.00;;;;4949458;28;93802;-63
2022/07/31 06:05:53;;;;;;;3.80;3.47;;;19.10;99.90;19.40;100675.00;;;;4950137;28;93101;-63
2022/07/31 06:08:19;;;;;;;4.72;3.60;;;19.10;99.90;19.50;100686.00;;;;4949185;28;93905;-63
2022/07/31 06:10:45;;;;;;;4.63;3.13;;;19.30;99.90;19.70;100683.00;;;;4949054;28;109157;-63
2022/07/31 06:13:12;;;;;;;3.47;3.17;;;19.50;99.90;19.90;100683.00;;;;4948010;28;124550;-64
2022/07/31 06:15:38;;;;;;;3.60;3.30;;;19.70;99.90;20.00;100691.00;;;;4931098;28;94739;-64
2022/07/31 06:18:04;;;;;;;4.20;3.40;;;20.10;99.90;20.20;100688.00;;;;4949698;28;92757;-64
2022/07/31 06:20:29;;;;;;;3.63;2.92;;;19.90;99.90;20.30;100688.00;;;;4949247;28;92610;-64
2022/07/31 06:22:55;;;;;;;4.22;3.22;;;20.10;99.90;20.40;100679.00;;;;4948051;28;122935;-64
2022/07/31 06:25:21;;;;;;;2.67;2.38;;;20.20;99.90;20.60;100687.00;;;;4949754;28;94618;-63
2022/07/31 06:27:47;;;;;;;3.05;2.85;;;20.40;99.90;20.80;100671.00;;;;4948476;28;92822;-63
2022/07/31 06:30:13;;;;;;;5.88;2.88;;;20.60;99.90;21.00;100678.00;;;;4949818;28;92704;-64
2022/07/31 06:32:39;;;;;;;3.65;2.65;;;20.80;99.90;21.20;100682.00;;;;4947731;28;119371;-64
2022/07/31 06:35:06;;;;;;;2.65;2.45;;;21.00;99.90;21.40;100682.00;;;;4949436;28;93956;-63
2022/07/31 06:37:33;;;;;;;4.65;3.10;;;21.20;99.90;21.60;100686.00;;;;4922649;28;92899;-63
2022/07/31 06:39:59;;;;;;;3.97;2.28;;;21.40;99.90;21.80;100680.00;;;;4950157;28;92838;-63
2022/07/31 06:42:25;;;;;;;2.92;2.47;;;21.60;99.90;22.00;100681.00;;;;4948871;28;93168;-63
2022/07/31 06:44:52;;;;;;;4.07;3.00;;;21.80;99.90;22.10;100677.00;;;;4946130;28;123395;-64
2022/07/31 06:47:21;;;;;;;2.30;2.10;;;21.90;99.90;22.30;100665.00;;;;4935561;28;93487;-63
2022/07/31 06:49:47;;;;;;;2.22;1.98;;;22.10;99.90;22.40;100668.00;;;;4949686;28;92314;-64
2022/07/31 06:52:13;;;;;;;4.70;2.63;;;22.20;99.90;22.70;100667.00;;;;4947871;28;118909;-63
2022/07/31 06:54:38;;;;;;;2.90;2.60;;;22.40;99.90;22.90;100670.00;;;;4949040;28;93620;-63
2022/07/31 06:57:04;;;;;;;3.85;1.73;;;22.70;99.90;23.10;100676.00;;;;4945883;28;110998;-64
2022/07/31 06:59:30;;;;;;;2.75;2.42;;;22.80;99.90;23.20;100670.00;;;;4947720;28;107824;-64
2022/07/31 07:01:56;;;;;;;2.35;1.85;;;23.00;99.90;23.30;100675.00;;;;4947616;28;93848;-64
2022/07/31 07:04:21;;;;;;;1.92;1.73;;;23.10;99.90;23.50;100667.00;;;;4947589;28;121697;-64
2022/07/31 07:06:47;;;;;;;2.08;1.90;;;23.30;99.60;23.70;100668.00;;;;4947441;28;110946;-64
2022/07/31 07:09:13;;;;;;;2.83;2.20;;;23.40;98.90;23.90;100670.00;;;;4947890;28;99972;-64
2022/07/31 07:11:39;;;;;;;2.35;1.67;;;23.70;98.30;24.20;100673.00;;;;4951073;28;122484;-65
2022/07/31 07:14:05;;;;;;;2.75;2.35;;;23.90;97.70;24.40;100677.00;;;;4949850;28;93036;-63
2022/07/31 07:16:31;;;;;;;3.95;2.25;;;24.10;96.50;24.60;100682.00;;;;4949537;28;98103;-65
2022/07/31 07:18:56;;;;;;;2.42;1.90;;;24.40;95.60;24.80;100680.00;;;;4946807;28;92737;-65
2022/07/31 07:21:22;;;;;;;3.28;2.05;;;24.50;94.80;25.00;100677.00;;;;4948144;28;94119;-65
2022/07/31 07:23:48;;;;;;;2.80;2.58;;;24.70;94.30;25.20;100679.00;;;;4948094;28;94649;-64
2022/07/31 07:26:14;;;;;;;1.88;1.77;;;25.00;92.90;25.30;100688.00;;;;4934020;28;94796;-64
2022/07/31 07:28:39;;;;;;;2.13;1.60;;;25.00;91.80;25.40;100689.00;;;;4948326;28;92804;-63
2022/07/31 07:31:05;;;;;;;1.83;1.73;;;25.10;91.10;25.40;100686.00;;;;4950605;28;122700;-63
2022/07/31 07:33:31;;;;;;;2.42;1.77;;;25.20;90.10;25.40;100689.00;;;;4950593;28;122577;-63
2022/07/31 07:35:57;;;;;;;2.40;2.20;;;25.30;88.40;25.50;100682.00;;;;4951946;28;92740;-63
2022/07/31 07:38:23;;;;;;;1.73;1.63;;;25.30;88.20;25.70;100681.00;;;;4951082;28;97131;-64
2022/07/31 07:40:50;;;;;;;2.05;1.60;;;25.40;88.40;25.90;100674.00;;;;4950806;28;122268;-64
2022/07/31 07:43:15;;;;;;;1.92;1.65;;;25.60;87.40;26.10;100679.00;;;;4951346;28;111656;-62
2022/07/31 07:45:41;;;;;;;2.13;1.58;;;25.80;85.80;26.30;100678.00;;;;4950253;28;111544;-62
2022/07/31 07:48:07;;;;;;;2.10;1.35;;;26.00;85.00;26.50;100674.00;;;;4932860;28;104821;-62
2022/07/31 07:50:33;;;;;;;2.20;1.67;;;26.20;82.60;26.50;100665.00;;;;4950744;28;118745;-62
2022/07/31 07:52:59;;;;;;;3.05;1.77;;;26.30;79.50;26.50;100664.00;;;;4951114;28;93878;-62
2022/07/31 07:55:25;;;;;;;1.42;1.33;;;26.30;78.60;26.60;100664.00;;;;4951711;28;98943;-63
2022/07/31 07:57:51;;;;;;;2.25;1.73;;;26.40;78.80;26.80;100663.00;;;;4952616;28;92771;-62
2022/07/31 08:00:18;;;;;;;1.45;1.35;;;26.50;77.60;26.90;100662.00;;;;4949403;28;122291;-63
2022/07/31 08:02:45;;;;;;;2.17;1.73;;;26.70;77.00;27.20;100661.00;;;;4935763;28;96061;-63
2022/07/31 08:05:11;;;;;;;1.98;1.73;;;26.90;76.70;27.40;100665.00;;;;4952202;28;92782;-61
2022/07/31 08:07:39;;;;;;;2.15;1.83;;;27.10;75.20;27.50;100663.00;;;;4952355;28;96164;-62
2022/07/31 08:10:06;;;;;;;1.60;1.48;;;27.20;74.20;27.50;100658.00;;;;4950944;28;94471;-62
2022/07/31 08:12:33;;;;;;;1.60;1.50;;;27.30;70.00;27.30;100658.00;;;;4951412;28;94574;-63
2022/07/31 08:14:58;;;;;;;4.50;1.70;;;27.20;69.20;27.20;100661.00;;;;4952005;28;92741;-62
2022/07/31 08:17:24;;;;;;;2.45;1.98;;;27.10;70.00;27.30;100663.00;;;;4933330;28;95741;-62
2022/07/31 08:19:50;;;;;;;2.15;1.90;;;27.10;70.30;27.40;100665.00;;;;4939856;28;121347;-62
2022/07/31 08:22:16;;;;;;;2.05;1.85;;;27.20;69.70;27.40;100664.00;;;;4951498;28;93535;-63
2022/07/31 08:24:42;;;;;;;1.85;1.65;;;27.20;69.30;27.30;100657.00;;;;4951694;28;96920;-62
2022/07/31 08:27:23;;;;;;;2.22;1.77;;;27.10;67.40;27.20;100656.00;;;;4951435;28;108065;-63
2022/07/31 08:29:53;;;;;;;2.67;1.98;;;27.10;67.80;27.20;100655.00;;;;4950601;28;93704;-63
2022/07/31 08:32:19;;;;;;;1.52;1.40;;;27.00;69.00;27.20;100652.00;;;;4950912;28;102936;-63
2022/07/31 08:34:45;;;;;;;2.50;1.65;;;27.10;68.00;27.30;100647.00;;;;4951480;28;93720;-63
2022/07/31 08:37:12;;;;;;;2.25;1.83;;;27.10;68.60;27.30;100649.00;;;;4952243;28;93093;-63
2022/07/31 08:39:38;;;;;;;1.73;1.52;;;27.20;68.40;27.50;100651.00;;;;4951330;28;93319;-65
2022/07/31 08:42:06;;;;;;;1.75;1.50;;;27.20;68.40;27.80;100652.00;;;;4950020;28;93654;-63
2022/07/31 08:44:36;;;;;;;2.67;2.10;;;27.50;68.30;28.00;100647.00;;;;4937628;28;92957;-64
2022/07/31 08:47:05;;;;;;;3.35;2.30;;;27.70;67.50;28.20;100639.00;;;;4929517;28;98262;-63
2022/07/31 08:49:40;;;;;;;1.83;1.73;;;27.90;67.00;28.20;100637.00;;;;4947069;28;93162;-63
2022/07/31 08:52:09;;;;;;;3.45;2.17;;;28.00;65.00;28.20;100633.00;;;;4951173;28;93580;-63
2022/07/31 08:54:36;;;;;;;2.40;2.17;;;28.00;65.10;28.40;100642.00;;;;4950897;28;102404;-63
2022/07/31 08:57:03;;;;;;;2.38;1.92;;;28.10;65.10;28.40;100642.00;;;;4950717;28;95471;-63
2022/07/31 08:59:29;;;;;;;1.88;1.77;;;28.20;64.20;28.40;100628.00;;;;4949759;28;112974;-64
2022/07/31 09:01:55;;;;;;;2.13;1.92;;;28.20;64.30;28.60;100634.00;;;;4949660;28;121959;-63
2022/07/31 09:04:22;;;;;;;2.03;1.75;;;28.30;64.10;28.70;100634.00;;;;4950710;28;93262;-64
2022/07/31 09:06:49;;;;;;;2.67;2.08;;;28.40;63.90;29.00;100635.00;;;;4950521;28;101458;-63
2022/07/31 09:09:17;;;;;;;3.25;2.17;;;28.60;63.00;29.10;100629.00;;;;4950635;28;93097;-63
2022/07/31 09:11:48;;;;;;;2.15;1.95;;;28.80;62.40;29.10;100625.00;;;;4951140;28;92945;-64
2022/07/31 09:14:33;;;;;;;2.53;1.83;;;28.80;61.20;29.00;100626.00;;;;4951041;28;92692;-63
2022/07/31 09:17:01;;;;;;;2.00;1.73;;;28.80;60.80;29.00;100627.00;;;;4951497;28;92008;-63
2022/07/31 09:19:39;;;;;;;2.42;2.22;;;28.80;60.70;29.00;100618.00;;;;4948534;28;93803;-63
2022/07/31 09:22:05;;;;;;;3.10;2.33;;;28.80;60.20;29.10;100618.00;;;;4948922;28;115296;-64
2022/07/31 09:24:33;;;;;;;2.08;1.85;;;28.90;60.70;29.40;100619.00;;;;4950241;28;96103;-63
2022/07/31 09:27:08;;;;;;;1.70;1.50;;;29.10;60.60;29.70;100616.00;;;;4950353;28;93037;-63
2022/07/31 09:29:39;;;;;;;2.03;1.80;;;29.40;59.70;29.90;100609.00;;;;4949943;28;94415;-64
2022/07/31 09:32:19;;;;;;;1.73;1.55;;;29.50;59.00;30.00;100612.00;;;;4951288;28;93033;-64
2022/07/31 09:34:46;;;;;;;1.60;1.40;;;29.60;58.60;30.30;100611.00;;;;4950540;28;92803;-64
2022/07/31 09:37:20;;;;;;;2.70;1.83;;;29.80;58.30;30.40;100612.00;;;;4951619;28;93339;-63
2022/07/31 09:39:55;;;;;;;3.97;2.45;;;30.00;57.60;30.60;100613.00;;;;4931194;28;94110;-64
2022/07/31 09:42:22;;;;;;;3.33;2.17;;;30.20;56.90;30.80;100603.00;;;;4951171;28;99154;-63
2022/07/31 09:44:50;;;;;;;5.80;1.33;;;30.40;56.30;31.00;100613.00;;;;4950508;28;92955;-64
2022/07/31 09:47:31;;;;;;;2.58;1.83;;;30.60;56.00;31.20;100606.00;;;;4950986;28;92810;-65
2022/07/31 09:50:02;;;;;;;2.75;1.45;;;30.80;54.60;31.10;100592.00;;;;4949260;28;94794;-63
2022/07/31 09:52:30;;;;;;;2.95;1.80;;;30.80;53.50;31.00;100595.00;;;;4949519;28;110101;-63
2022/07/31 09:55:11;;;;;;;1.85;1.33;;;30.70;53.90;31.20;100595.00;;;;4950511;28;92957;-63
2022/07/31 09:57:39;;;;;;;1.90;1.38;;;30.80;53.80;31.50;100596.00;;;;4950598;28;92889;-64
2022/07/31 10:00:08;;;;;;;2.22;2.05;;;31.00;53.50;31.60;100588.00;;;;4949996;28;93392;-64
2022/07/31 10:02:37;;;;;;;2.83;1.95;;;31.10;51.90;31.70;100592.00;;;;4950317;28;92940;-62
2022/07/31 10:05:05;;;;;;;1.77;1.45;;;31.30;52.10;32.00;100588.00;;;;4950583;28;93724;-63
2022/07/31 10:07:35;;;;;;;2.05;1.33;;;31.40;51.90;32.20;100570.00;;;;4950370;28;92479;-64
2022/07/31 10:10:04;;;;;;;2.83;2.10;;;31.70;50.50;32.30;100579.00;;;;4949927;28;94304;-64
2022/07/31 10:12:31;;;;;;;2.88;2.00;;;31.80;50.50;32.40;100580.00;;;;4937551;28;93693;-64
2022/07/31 10:15:05;;;;;;;2.08;1.33;;;31.90;49.80;32.30;100587.00;;;;4935038;28;93751;-64
2022/07/31 10:17:38;;;;;;;2.00;1.85;;;31.90;49.20;32.20;100578.00;;;;4951119;28;92897;-64
2022/07/31 10:20:07;;;;;;;3.42;1.33;;;31.80;49.40;32.30;100588.00;;;;4936087;28;93780;-64
2022/07/31 10:23:05;;;;;;;3.55;2.03;;;31.80;49.80;32.60;100582.00;;;;4947190;28;92827;-64
2022/07/31 10:25:33;;;;;;;2.58;1.88;;;32.00;49.90;32.70;100573.00;;;;4946655;28;93162;-63
2022/07/31 10:28:00;;;;;;;3.38;2.03;;;32.20;49.00;32.80;100586.00;;;;4946422;28;92594;-64
2022/07/31 10:30:26;;;;;;;1.98;1.77;;;32.30;48.40;32.70;100579.00;;;;4933355;28;93399;-64
2022/07/31 10:32:52;;;;;;;1.45;1.35;;;32.30;47.70;32.70;100570.00;;;;4948248;28;93626;-64
2022/07/31 10:35:19;;;;;;;2.75;1.77;;;32.20;47.70;32.80;100566.00;;;;4947378;28;92858;-64
2022/07/31 10:37:58;;;;;;;2.90;1.65;;;32.20;47.60;32.60;100575.00;;;;4949727;28;92880;-63
2022/07/31 10:40:47;;;;;;;1.30;1.20;;;32.10;47.20;32.20;100564.00;;;;4930085;28;94122;-64
2022/07/31 10:43:25;;;;;;;2.33;1.35;;;31.90;46.80;32.20;100570.00;;;;4930808;28;94539;-63
2022/07/31 10:45:54;;;;;;;1.85;1.50;;;31.70;46.80;32.30;100560.00;;;;4948591;28;103024;-64
2022/07/31 10:48:21;;;;;;;1.58;1.40;;;31.70;46.90;32.40;100561.00;;;;4949496;28;92803;-64